Share

Galena, AK

Pitka (PAGA) Elev 151 ft | 64.74 °N, 156.94 °W | Change Station

Current weather conditions updated 25 minutes ago

Clear
Clear
31 °F
Feels Like 31 °F
N
0
Wind Variable Wind from North
Sunrise 6:34 AM
Sunset 10:21 PM
Moon Waning Gibbous

Today is forecast to be nearly the same temperature as yesterday.

Pressure 29.77 in
Visibility 10.0 miles
Clouds Clear
Dew Point 27 °F
Humidity 85%
Rainfall 0.00 in
Snow Depth Not available.
UV 0 out of 16
Pollen Not available.
Air Quality Not available.
Flu Activity Sporadic
METAR PAGA 201258Z AUTO 00000KT 10SM CLR M01/M03 A2974 RMK AO2 SLP079 T10061028 FZRANO PNO $

More Conditions Fewer Conditions

Pressure 29.77 in
Visibility 10.0 miles
Clouds Clear
Dew Point 27 °F
Humidity 85%
Rainfall 0.00 in
Snow Depth Not available.
UV 0 out of 16
Pollen Not available.
Air Quality Not available.
Flu Activity Sporadic
METAR PAGA 201258Z AUTO 00000KT 10SM CLR M01/M03 A2974 RMK AO2 SLP079 T10061028 FZRANO PNO $

More Conditions Fewer Conditions

10-Day Weather Forecast

Almanac

Astronomy

Apr. 20, 2014 Rise Set
Actual Time 6:34 AM AKDT 10:21 PM AKDT
Civil Twilight 5:33 AM AKDT 11:22 PM AKDT
Nautical Twilight 3:51 AM AKDT 1:09 AM AKDT
Astronomical Twilight Sun does not rise Sun does not rise
Moon 4:00 AM AKDT 10:18 AM AKDT
Length of Visible Light 17h 49m
Length of Day
15h 46m
Tomorrow will be 6m 52s longer.
Waning Gibbous, 70% of the Moon is Illuminated
Today
Waning Gibbous
Apr 22
Last Quarter
Apr 29
New
May 6
First Quarter
May 14
Full

Today's Extremes

State Highs State Lows

Community

  • Happy Easter
    Happy Easter
  • EARLY FOGGY MORNING
    EARLY FOGGY MORNING
  • Easter Greetings
    Easter Greetings
  • Sunny day at the coast-Cape Arago Lighthouse
    Sunny day at the coast-Cape Arago Lighthouse
  • Cherry Blossoms
    Cherry Blossoms

WunderPhotos

Upload Photos

1,703,205 photos uploaded!

Nearby

Snow Depth

Station Depth Elevation
Pargon Creek 2 in 300 ft
Rocky Point 4 in 500 ft
Gobblers Knob 8 in 2030 ft
Coldfoot 22 in 1040 ft
Susitna Valley High 17 in 375 ft

Coastal Water Temperatures

Place Temperature
No Stations Reporting

Earthquake Activity

City Distance Mag. Time & Date
No recent earthquake activity has been reported nearby.
Minimum magnitude displayed is 2.5.

Nearby Weather Stations

There are no personal weather stations in this area.

What do you think?

We're not finished. Please let us know what you like, what you don't like, and what you are still missing.